Time;durP1;ratioP1;P1;durP2;ratioP2;P2;SDS_P1;SDS_P2;PMS_P1;PMS_P2;Temp;Humidity;BMP_temperature;BMP_pressure;BME280_temperature;BME280_humidity;BME280_pressure;Samples;Min_cycle;Max_cycle;Signal;HPM_P1;HPM_P2
2022/08/03 00:01:06;;;;;;;4.20;3.03;;;;;;;23.77;48.32;99277.41;5084804;28;20056;-68
2022/08/03 00:03:34;;;;;;;3.75;2.80;;;;;;;23.73;48.22;99279.63;5084980;28;20057;-68
2022/08/03 00:06:02;;;;;;;4.35;2.85;;;;;;;23.67;48.44;99275.72;5067466;28;20305;-68
2022/08/03 00:08:30;;;;;;;4.40;3.25;;;;;;;23.65;48.67;99280.47;5084972;28;20219;-68
2022/08/03 00:10:57;;;;;;;8.00;4.78;;;;;;;23.67;48.68;99272.19;5084831;28;20185;-68
2022/08/03 00:13:25;;;;;;;9.20;8.05;;;;;;;23.69;48.60;99276.41;5085814;28;20106;-68
2022/08/03 00:15:52;;;;;;;13.30;10.63;;;;;;;23.69;48.76;99283.69;5088483;28;20110;-68
2022/08/03 00:18:20;;;;;;;10.35;9.23;;;;;;;23.71;48.81;99278.94;5088959;28;20044;-68
2022/08/03 00:20:47;;;;;;;8.00;7.10;;;;;;;23.56;48.94;99253.59;5088650;28;20045;-68
2022/08/03 00:23:16;;;;;;;7.45;5.22;;;;;;;23.51;49.18;99254.09;5088019;28;20056;-68
2022/08/03 00:25:43;;;;;;;6.00;4.18;;;;;;;23.20;49.52;99216.03;5088259;28;20262;-68
2022/08/03 00:28:11;;;;;;;6.28;4.18;;;;;;;23.55;49.52;99271.69;5088517;28;20044;-68
2022/08/03 00:30:38;;;;;;;4.18;3.50;;;;;;;23.52;49.55;99268.47;5088267;28;20308;-68
2022/08/03 00:33:05;;;;;;;7.68;3.30;;;;;;;23.39;49.58;99257.31;5088166;28;20215;-68
2022/08/03 00:35:33;;;;;;;3.50;2.83;;;;;;;23.51;49.64;99273.03;5087865;28;20059;-68
2022/08/03 00:38:00;;;;;;;3.45;2.50;;;;;;;23.42;49.84;99274.03;5088293;28;20189;-68
2022/08/03 00:40:29;;;;;;;3.22;2.38;;;;;;;23.20;50.63;99248.47;5087715;28;20056;-68
2022/08/03 00:42:57;;;;;;;3.65;2.58;;;;;;;23.38;50.37;99267.28;5088087;28;20111;-68
2022/08/03 00:45:26;;;;;;;3.10;2.20;;;;;;;23.40;50.39;99261.69;5088051;28;20060;-68
2022/08/03 00:47:54;;;;;;;3.58;2.47;;;;;;;23.20;49.99;99226.00;5087660;28;20049;-68
2022/08/03 00:50:23;;;;;;;5.20;2.83;;;;;;;23.42;49.99;99268.63;5087345;28;20106;-68
2022/08/03 00:52:55;;;;;;;3.17;2.22;;;;;;;23.45;50.06;99268.28;5087642;28;20236;-67
2022/08/03 00:55:22;;;;;;;4.00;2.40;;;;;;;23.37;50.23;99273.69;5088324;28;20197;-68
2022/08/03 00:57:52;;;;;;;3.75;2.60;;;;;;;23.42;50.16;99273.19;5087364;28;20078;-68
2022/08/03 01:00:21;;;;;;;3.67;2.60;;;;;;;23.35;50.47;99263.06;5087925;28;20040;-68
2022/08/03 01:02:48;;;;;;;3.90;2.60;;;;;;;23.39;50.18;99263.56;5087763;28;20110;-67
2022/08/03 01:05:16;;;;;;;3.67;2.30;;;;;;;23.37;50.17;99260.19;5087753;28;20285;-68
2022/08/03 01:07:57;;;;;;;4.97;3.00;;;;;;;23.27;50.63;99248.69;5087300;28;20089;-68
2022/08/03 01:10:28;;;;;;;15.02;11.80;;;;;;;23.15;50.45;99247.28;5087665;28;20277;-67
2022/08/03 01:13:03;;;;;;;15.70;13.70;;;;;;;23.31;50.58;99264.41;5087721;28;20355;-67
2022/08/03 01:15:39;;;;;;;13.20;11.80;;;;;;;23.18;50.47;99241.56;5087765;28;20040;-67
2022/08/03 01:18:10;;;;;;;11.35;9.65;;;;;;;23.24;50.68;99260.66;5087092;28;20056;-66
2022/08/03 01:20:43;;;;;;;8.93;7.40;;;;;;;23.26;50.59;99263.19;5087029;28;20057;-67
2022/08/03 01:23:37;;;;;;;7.00;6.17;;;;;;;23.25;50.85;99258.78;5070488;28;20072;-67
2022/08/03 01:26:21;;;;;;;5.60;3.85;;;;;;;23.16;50.71;99251.69;5085985;28;20064;-67
2022/08/03 01:28:57;;;;;;;;;;;;;;;22.93;51.73;99262.28;5087773;28;20114;-68
2022/08/03 01:31:31;;;;;;;4.05;2.90;;;;;;;22.93;50.72;99240.66;5087412;28;19916;-68
2022/08/03 01:34:00;;;;;;;;;;;;;;;22.90;51.70;99260.75;5087294;28;20061;-68
2022/08/03 01:36:32;;;;;;;3.38;2.40;;;;;;;22.71;51.92;99217.81;5087178;28;19924;-68
2022/08/03 01:39:08;;;;;;;8.38;7.53;;;;;;;22.88;51.36;99237.63;5086780;28;20059;-68
2022/08/03 01:41:39;;;;;;;6.88;6.18;;;;;;;22.97;51.69;99250.97;5086911;28;20102;-67
2022/08/03 01:44:11;;;;;;;13.35;11.32;;;;;;;22.98;51.49;99260.78;5086894;28;20358;-68
2022/08/03 01:46:41;;;;;;;10.50;8.60;;;;;;;22.97;51.21;99247.44;5070141;28;20106;-68
2022/08/03 01:49:12;;;;;;;6.63;5.10;;;;;;;22.98;51.34;99259.94;5086527;28;20052;-68
2022/08/03 01:51:42;;;;;;;4.72;3.30;;;;;;;22.92;51.36;99256.03;5086603;28;20060;-68
2022/08/03 01:54:11;;;;;;;3.97;3.15;;;;;;;22.90;51.44;99257.22;5086749;28;20109;-67
2022/08/03 01:56:40;;;;;;;3.70;2.58;;;;;;;22.72;51.62;99227.63;5086696;28;20064;-68
2022/08/03 01:59:09;;;;;;;4.35;3.10;;;;;;;22.88;51.39;99254.69;5086684;28;20220;-68
2022/08/03 02:01:38;;;;;;;3.47;2.80;;;;;;;22.83;51.45;99250.78;5086186;28;20056;-68
2022/08/03 02:04:08;;;;;;;3.28;2.70;;;;;;;22.33;51.93;99171.41;5068958;28;20370;-67
2022/08/03 02:06:38;;;;;;;4.53;3.38;;;;;;;22.80;51.49;99246.56;5086581;28;20052;-68
2022/08/03 02:09:06;;;;;;;8.10;7.22;;;;;;;22.85;51.42;99259.56;5086427;28;20060;-67
2022/08/03 02:11:35;;;;;;;12.77;11.25;;;;;;;22.78;51.94;99247.72;5086404;28;20053;-68
2022/08/03 02:14:05;;;;;;;8.68;6.90;;;;;;;22.79;51.74;99246.72;5086192;28;20064;-68
2022/08/03 02:16:34;;;;;;;6.38;5.65;;;;;;;22.77;51.88;99248.75;5086369;28;20053;-67
2022/08/03 02:19:05;;;;;;;7.00;6.30;;;;;;;22.70;52.05;99244.00;5085736;28;20110;-68
2022/08/03 02:21:37;;;;;;;6.15;4.90;;;;;;;22.74;52.06;99255.31;5086326;28;20106;-68
2022/08/03 02:24:07;;;;;;;5.72;4.20;;;;;;;22.67;52.21;99247.03;5086073;28;20071;-68
2022/08/03 02:26:37;;;;;;;4.78;3.17;;;;;;;22.48;52.24;99225.66;5086143;28;20049;-68
2022/08/03 02:29:11;;;;;;;3.72;2.78;;;;;;;22.58;52.66;99245.31;5086175;28;20101;-68
2022/08/03 02:31:38;;;;;;;;;;;;;;;22.36;53.42;99248.53;5086245;28;20110;-68
2022/08/03 02:34:12;;;;;;;3.65;2.50;;;;;;;22.52;52.48;99245.94;5085730;28;19970;-68
2022/08/03 02:36:42;;;;;;;4.50;2.63;;;;;;;22.15;52.45;99194.13;5068698;28;20110;-68
2022/08/03 02:39:13;;;;;;;4.00;2.63;;;;;;;22.47;52.49;99252.81;5085371;28;20064;-67
2022/08/03 02:41:45;;;;;;;4.25;2.58;;;;;;;22.52;52.20;99256.72;5085959;28;20258;-67
2022/08/03 02:44:14;;;;;;;3.70;2.60;;;;;;;22.45;52.29;99231.38;5085806;28;20094;-68
2022/08/03 02:46:45;;;;;;;3.70;2.38;;;;;;;22.56;52.17;99252.72;5085533;28;20106;-67
2022/08/03 02:49:17;;;;;;;4.35;2.35;;;;;;;22.47;52.50;99248.28;5085411;28;20068;-68
2022/08/03 02:51:49;;;;;;;3.90;2.42;;;;;;;22.53;52.42;99249.47;5085647;28;20106;-68
2022/08/03 02:54:18;;;;;;;6.95;5.57;;;;;;;22.56;52.32;99252.72;5085673;28;20114;-68
2022/08/03 02:56:47;;;;;;;9.02;7.18;;;;;;;21.98;52.29;99167.06;5085558;28;20056;-67
2022/08/03 02:59:18;;;;;;;13.25;11.90;;;;;;;22.53;52.08;99257.56;5085333;28;20223;-67
2022/08/03 03:01:46;;;;;;;9.13;7.53;;;;;;;22.44;52.80;99256.69;5085302;28;20098;-67
2022/08/03 03:04:15;;;;;;;8.57;7.68;;;;;;;22.41;52.69;99257.88;5085083;28;20086;-67
2022/08/03 03:06:44;;;;;;;8.75;6.95;;;;;;;22.38;52.66;99255.47;5085541;28;20063;-68
2022/08/03 03:09:12;;;;;;;6.75;4.88;;;;;;;22.39;52.56;99259.00;5085419;28;20060;-68
2022/08/03 03:11:42;;;;;;;5.68;4.50;;;;;;;22.02;52.59;99195.41;5085384;28;20300;-67
2022/08/03 03:14:11;;;;;;;4.75;3.67;;;;;;;22.39;52.60;99261.72;5085380;28;20228;-67
2022/08/03 03:16:39;;;;;;;4.28;3.45;;;;;;;22.35;53.11;99260.34;5085256;28;20060;-68
2022/08/03 03:19:08;;;;;;;4.55;2.75;;;;;;;22.28;53.26;99257.44;5085157;28;20060;-67
2022/08/03 03:21:36;;;;;;;3.63;2.53;;;;;;;22.23;53.20;99265.19;5085243;28;20106;-68
2022/08/03 03:24:05;;;;;;;6.95;5.35;;;;;;;22.27;53.01;99271.94;5085147;28;20194;-68
2022/08/03 03:26:35;;;;;;;9.68;8.65;;;;;;;22.22;53.04;99273.44;5084925;28;20057;-67
2022/08/03 03:29:02;;;;;;;13.70;11.40;;;;;;;21.92;52.81;99228.91;5084969;28;20122;-68
2022/08/03 03:31:30;;;;;;;12.88;10.57;;;;;;;22.22;52.89;99273.44;5085166;28;20040;-67
2022/08/03 03:33:58;;;;;;;6.53;5.82;;;;;;;22.01;53.06;99236.03;5084774;28;20106;-67
2022/08/03 03:36:25;;;;;;;4.18;3.20;;;;;;;22.18;53.00;99277.47;5084876;28;20267;-67
2022/08/03 03:38:52;;;;;;;4.82;2.97;;;;;;;21.70;52.92;99208.69;5085042;28;20052;-68
2022/08/03 03:41:19;;;;;;;4.63;2.80;;;;;;;22.05;53.03;99270.66;5085077;28;20255;-68
2022/08/03 03:43:49;;;;;;;4.55;3.40;;;;;;;21.00;53.43;99103.53;5084636;28;20056;-67
2022/08/03 03:46:17;;;;;;;7.03;3.15;;;;;;;21.97;53.62;99276.00;5085070;28;20102;-67
2022/08/03 03:48:45;;;;;;;4.82;3.88;;;;;;;21.88;53.80;99276.94;5086555;28;20056;-67
2022/08/03 03:51:13;;;;;;;5.50;3.70;;;;;;;21.95;53.57;99277.16;5088815;28;20102;-67
2022/08/03 03:53:41;;;;;;;8.27;7.30;;;;;;;22.00;53.49;99275.69;5088926;28;20061;-68
2022/08/03 03:56:08;;;;;;;15.13;13.40;;;;;;;21.96;53.70;99279.69;5088693;28;20052;-67
2022/08/03 03:58:35;;;;;;;15.80;13.60;;;;;;;21.99;53.67;99273.97;5088695;28;20048;-68
2022/08/03 04:01:04;;;;;;;12.35;10.70;;;;;;;21.97;53.52;99272.44;5088875;28;20098;-68
2022/08/03 04:03:31;;;;;;;5.00;4.43;;;;;;;21.94;53.60;99276.31;5088946;28;20060;-68
2022/08/03 04:11:32;;;;;;;5.13;3.63;;;;;;;21.09;53.85;99174.53;5089063;28;20090;-67
2022/08/03 04:14:06;;;;;;;3.72;2.83;;;;;;;21.85;53.54;99293.44;5088499;28;20186;-67
2022/08/03 04:16:38;;;;;;;4.07;2.70;;;;;;;21.41;53.69;99234.09;5088251;28;20066;-67
2022/08/03 04:19:11;;;;;;;4.95;2.88;;;;;;;21.83;53.85;99300.00;5088195;28;20106;-67
2022/08/03 04:21:43;;;;;;;6.05;2.80;;;;;;;21.78;54.02;99298.59;5088361;28;20064;-67
2022/08/03 04:24:14;;;;;;;3.97;2.90;;;;;;;21.77;54.05;99301.44;5088882;28;20094;-67
2022/08/03 04:26:45;;;;;;;4.28;2.80;;;;;;;21.77;54.21;99302.31;5088092;28;20056;-67
2022/08/03 04:29:14;;;;;;;4.50;2.60;;;;;;;21.77;54.01;99305.00;5088157;28;20052;-67
2022/08/03 04:31:44;;;;;;;5.07;3.22;;;;;;;21.67;53.75;99292.59;5087748;28;20065;-67
2022/08/03 04:34:12;;;;;;;4.28;3.15;;;;;;;21.73;54.05;99309.00;5088300;28;20085;-67
2022/08/03 04:36:47;;;;;;;10.73;8.65;;;;;;;21.75;54.42;99312.41;5087763;28;20102;-67
2022/08/03 04:39:19;;;;;;;11.63;10.43;;;;;;;21.76;54.36;99306.00;5088121;28;20102;-67
2022/08/03 04:41:49;;;;;;;11.18;10.00;;;;;;;21.74;54.05;99309.84;5088104;28;20056;-67
2022/08/03 04:44:19;;;;;;;8.25;6.20;;;;;;;21.78;54.44;99313.94;5088069;28;20123;-67
2022/08/03 04:46:48;;;;;;;4.75;3.60;;;;;;;21.70;54.40;99311.19;5087175;28;20321;-67
2022/08/03 04:49:16;;;;;;;4.25;3.10;;;;;;;21.73;54.18;99318.94;5087750;28;20052;-67
2022/08/03 04:51:43;;;;;;;5.57;3.70;;;;;;;21.67;54.26;99311.50;5087640;28;20106;-67
2022/08/03 04:54:12;;;;;;;4.75;3.17;;;;;;;21.68;54.36;99308.63;5087213;28;20308;-67
2022/08/03 04:56:40;;;;;;;5.15;3.85;;;;;;;21.68;54.53;99318.56;5087346;28;20312;-67
2022/08/03 04:59:07;;;;;;;4.97;3.03;;;;;;;21.56;54.29;99285.63;5087095;28;20098;-67
2022/08/03 05:01:35;;;;;;;4.80;2.75;;;;;;;21.64;54.44;99320.75;5087320;28;20321;-67
2022/08/03 05:04:04;;;;;;;9.45;4.80;;;;;;;21.64;54.36;99323.44;5087194;28;20177;-67
2022/08/03 05:06:31;;;;;;;12.10;9.23;;;;;;;21.64;54.78;99323.44;5087774;28;20095;-67
2022/08/03 05:08:58;;;;;;;12.35;10.68;;;;;;;21.55;54.67;99305.50;5087628;28;20049;-67
2022/08/03 05:11:25;;;;;;;5.13;4.55;;;;;;;21.71;54.22;99326.34;5087996;28;20090;-67
2022/08/03 05:13:52;;;;;;;6.70;3.58;;;;;;;21.77;54.01;99329.28;5087236;28;20365;-67
2022/08/03 05:16:20;;;;;;;5.03;3.85;;;;;;;21.76;54.34;99330.28;5087594;28;20056;-67
2022/08/03 05:18:47;;;;;;;6.22;4.53;;;;;;;21.72;54.43;99326.19;5087319;28;20057;-67
2022/08/03 05:21:15;;;;;;;8.15;4.93;;;;;;;21.78;54.49;99330.13;5087386;28;20186;-67
2022/08/03 05:23:43;;;;;;;4.13;3.20;;;;;;;21.13;53.78;99230.66;5087155;28;20110;-67
2022/08/03 05:26:11;;;;;;;5.50;3.70;;;;;;;21.81;54.03;99327.16;5087419;28;20102;-67
2022/08/03 05:28:38;;;;;;;9.63;6.03;;;;;;;21.85;53.87;99333.91;5087281;28;20114;-67
2022/08/03 05:31:06;;;;;;;7.45;6.68;;;;;;;21.83;54.08;99324.28;5087104;28;20106;-67
2022/08/03 05:33:33;;;;;;;11.45;9.38;;;;;;;21.58;54.34;99286.31;5086918;28;20056;-67
2022/08/03 05:36:00;;;;;;;11.98;9.95;;;;;;;21.94;54.31;99326.72;5086748;28;20056;-67
2022/08/03 05:38:29;;;;;;;6.47;4.38;;;;;;;21.97;53.32;99335.34;5086975;28;20060;-67
2022/08/03 05:40:57;;;;;;;3.90;3.00;;;;;;;21.95;53.61;99329.28;5086970;28;20266;-67
2022/08/03 05:43:24;;;;;;;3.83;2.72;;;;;;;21.98;53.51;99333.50;5086873;28;20057;-67
2022/08/03 05:45:51;;;;;;;5.25;2.65;;;;;;;21.99;53.43;99335.19;5086418;28;20057;-67
2022/08/03 05:48:18;;;;;;;4.88;2.95;;;;;;;21.98;53.78;99331.66;5086440;28;20052;-67
2022/08/03 05:50:45;;;;;;;3.67;2.78;;;;;;;22.00;53.17;99339.59;5086379;28;20064;-67
2022/08/03 05:53:13;;;;;;;6.25;3.30;;;;;;;22.00;53.16;99335.03;5086387;28;20105;-67
2022/08/03 05:55:41;;;;;;;3.92;2.55;;;;;;;22.04;53.38;99336.41;5086625;28;20114;-67
2022/08/03 05:58:09;;;;;;;4.63;2.67;;;;;;;22.05;52.95;99332.72;5086123;28;20102;-67
2022/08/03 06:00:36;;;;;;;7.13;3.97;;;;;;;22.04;52.89;99330.19;5086340;28;20057;-66
2022/08/03 06:03:03;;;;;;;4.22;3.45;;;;;;;21.96;52.96;99314.78;5086421;28;20113;-67
2022/08/03 06:05:35;;;;;;;4.35;3.08;;;;;;;22.04;52.68;99330.19;5086321;28;20064;-67
2022/08/03 06:08:02;;;;;;;4.50;3.20;;;;;;;22.05;53.07;99329.16;5085929;28;20082;-67
2022/08/03 06:10:29;;;;;;;5.18;3.47;;;;;;;21.98;52.71;99306.53;5085816;28;20053;-67
2022/08/03 06:12:58;;;;;;;3.60;2.58;;;;;;;22.06;53.17;99323.63;5085850;28;20057;-67
2022/08/03 06:15:25;;;;;;;3.50;2.95;;;;;;;22.19;52.86;99328.59;5086168;28;20057;-67
2022/08/03 06:17:52;;;;;;;3.30;2.40;;;;;;;22.20;52.96;99324.88;5085696;28;20052;-67
2022/08/03 06:20:21;;;;;;;3.30;2.58;;;;;;;22.23;52.63;99326.41;5085960;28;20060;-67
2022/08/03 06:22:49;;;;;;;3.42;2.45;;;;;;;21.86;52.51;99280.81;5086060;28;20056;-67
2022/08/03 06:25:16;;;;;;;3.45;2.42;;;;;;;22.27;52.43;99334.03;5085324;28;20056;-67
2022/08/03 06:27:43;;;;;;;4.00;3.17;;;;;;;21.89;52.30;99267.00;5085100;28;20235;-67
2022/08/03 06:30:13;;;;;;;5.65;4.13;;;;;;;22.35;52.02;99331.38;5084990;28;20056;-67
2022/08/03 06:32:41;;;;;;;3.58;2.30;;;;;;;22.36;51.97;99335.78;5085534;28;20143;-67
2022/08/03 06:35:09;;;;;;;8.07;2.67;;;;;;;22.42;51.19;99331.63;5085705;28;20056;-67
2022/08/03 06:37:44;;;;;;;3.33;2.95;;;;;;;22.48;50.69;99338.22;5085718;28;20064;-67
2022/08/03 06:40:13;;;;;;;4.60;2.75;;;;;;;21.94;51.26;99246.63;5085300;28;20053;-67
2022/08/03 06:42:41;;;;;;;3.28;2.35;;;;;;;22.56;51.08;99343.72;5085614;28;20052;-67
2022/08/03 06:45:08;;;;;;;2.95;2.28;;;;;;;22.48;50.85;99322.88;5085579;28;20118;-67
2022/08/03 06:47:38;;;;;;;3.50;2.33;;;;;;;22.63;50.27;99337.50;5085042;28;20052;-67
2022/08/03 06:50:08;;;;;;;3.30;2.70;;;;;;;22.45;50.52;99295.34;5085184;28;20106;-67
2022/08/03 06:52:35;;;;;;;3.55;2.60;;;;;;;22.81;50.23;99337.41;5085234;28;20267;-68
2022/08/03 06:55:02;;;;;;;3.17;2.55;;;;;;;22.84;50.84;99317.31;5085509;28;20320;-67
2022/08/03 06:57:29;;;;;;;3.53;2.50;;;;;;;23.11;50.14;99340.53;5085429;28;20056;-67
2022/08/03 07:00:00;;;;;;;4.80;2.85;;;;;;;23.30;49.99;99338.41;5085418;28;20056;-67
2022/08/03 07:02:28;;;;;;;3.97;2.80;;;;;;;23.49;48.82;99339.97;5085392;28;20057;-67
2022/08/03 07:04:57;;;;;;;4.10;2.72;;;;;;;23.73;49.05;99330.19;5084917;28;20101;-67
2022/08/03 07:07:25;;;;;;;4.15;3.30;;;;;;;24.02;48.26;99333.22;5084809;28;20114;-66
2022/08/03 07:09:52;;;;;;;4.65;2.88;;;;;;;24.31;48.22;99340.78;5085403;28;20094;-67
2022/08/03 07:12:19;;;;;;;4.57;3.30;;;;;;;24.62;47.19;99346.28;5084950;28;20061;-67
2022/08/03 07:14:46;;;;;;;5.10;3.40;;;;;;;24.77;47.24;99344.59;5085177;28;20090;-67
2022/08/03 07:17:14;;;;;;;4.30;3.03;;;;;;;24.84;46.67;99325.75;5084848;28;20056;-67
2022/08/03 07:19:42;;;;;;;5.25;3.25;;;;;;;25.13;46.15;99335.97;5067092;28;20044;-67
2022/08/03 07:22:11;;;;;;;4.97;3.05;;;;;;;25.32;46.04;99335.53;5084734;28;20320;-67
2022/08/03 07:24:38;;;;;;;5.55;3.63;;;;;;;25.47;45.78;99336.44;5084917;28;20224;-67
2022/08/03 07:27:05;;;;;;;4.75;2.97;;;;;;;25.42;45.15;99300.88;5084874;28;20106;-68
2022/08/03 07:29:34;;;;;;;5.30;3.63;;;;;;;25.81;44.64;99324.31;5067315;28;20056;-68
2022/08/03 07:32:02;;;;;;;4.00;2.78;;;;;;;26.01;44.46;99321.97;5084942;28;20201;-67
2022/08/03 07:34:30;;;;;;;4.78;3.28;;;;;;;26.14;44.10;99327.59;5084595;28;20056;-68
2022/08/03 07:36:57;;;;;;;5.15;3.20;;;;;;;26.22;43.38;99330.22;5084829;28;20037;-67
2022/08/03 07:39:26;;;;;;;4.68;2.92;;;;;;;26.35;43.24;99322.28;5084294;28;20211;-67
2022/08/03 07:41:53;;;;;;;5.32;2.75;;;;;;;26.40;42.71;99330.72;5084420;28;20056;-67
2022/08/03 07:44:20;;;;;;;3.28;2.25;;;;;;;26.55;42.88;99328.84;5084601;28;20358;-67
2022/08/03 07:46:49;;;;;;;4.00;2.50;;;;;;;26.73;42.79;99324.94;5084887;28;20102;-68
2022/08/03 07:49:16;;;;;;;3.65;2.70;;;;;;;26.80;42.11;99299.53;5084453;28;20121;-68
2022/08/03 07:51:44;;;;;;;6.90;2.90;;;;;;;27.00;41.67;99329.69;5084528;28;20082;-67
2022/08/03 07:54:11;;;;;;;4.35;2.53;;;;;;;26.90;40.97;99303.81;5084391;28;20308;-68
2022/08/03 07:56:39;;;;;;;4.22;2.88;;;;;;;27.09;41.34;99308.66;5084430;28;20150;-67
2022/08/03 07:59:07;;;;;;;5.75;2.53;;;;;;;27.22;41.04;99319.69;5084506;28;20106;-67
2022/08/03 08:01:36;;;;;;;4.03;2.45;;;;;;;27.28;39.19;99320.81;5084692;28;20041;-67
2022/08/03 08:04:04;;;;;;;4.40;2.20;;;;;;;27.36;39.02;99321.53;5084571;28;20060;-68
2022/08/03 08:06:32;;;;;;;4.85;2.20;;;;;;;27.50;39.74;99320.63;5084458;28;20127;-67
2022/08/03 08:09:01;;;;;;;4.07;2.17;;;;;;;27.59;38.93;99324.06;5084148;28;20064;-67
2022/08/03 08:11:28;;;;;;;3.10;2.38;;;;;;;27.58;39.31;99314.22;5084804;28;20094;-68
2022/08/03 08:13:56;;;;;;;6.90;2.40;;;;;;;27.67;38.26;99331.28;5084809;28;20056;-67
2022/08/03 08:16:24;;;;;;;4.38;2.40;;;;;;;27.76;38.63;99313.78;5084901;28;20366;-67
2022/08/03 08:18:51;;;;;;;4.03;2.30;;;;;;;27.88;38.37;99309.53;5084628;28;20263;-67
2022/08/03 08:21:18;;;;;;;3.05;2.22;;;;;;;27.82;38.96;99293.94;5084532;28;20053;-67
2022/08/03 08:23:45;;;;;;;5.15;2.90;;;;;;;27.89;38.48;99308.47;5084481;28;20114;-67
2022/08/03 08:26:13;;;;;;;3.85;2.42;;;;;;;28.07;38.46;99311.56;5084572;28;20102;-67
2022/08/03 08:28:40;;;;;;;3.88;2.17;;;;;;;28.17;37.62;99315.81;5066910;28;20051;-68
2022/08/03 08:31:08;;;;;;;3.70;2.15;;;;;;;28.22;37.27;99318.78;5084356;28;20079;-68
2022/08/03 08:33:36;;;;;;;3.08;2.55;;;;;;;27.97;36.70;99275.66;5084590;28;20087;-68
2022/08/03 08:36:03;;;;;;;3.17;2.17;;;;;;;28.28;37.09;99320.72;5087875;28;20105;-68
2022/08/03 08:38:30;;;;;;;4.70;1.90;;;;;;;28.38;37.50;99313.03;5087743;28;20060;-68
2022/08/03 08:40:58;;;;;;;4.50;2.25;;;;;;;28.49;37.35;99308.94;5087734;28;20060;-68
2022/08/03 08:43:25;;;;;;;3.88;2.15;;;;;;;28.51;37.57;99296.78;5087515;28;20052;-67
2022/08/03 08:45:55;;;;;;;2.70;2.00;;;;;;;28.71;36.91;99305.06;5088140;28;20086;-67
2022/08/03 08:48:25;;;;;;;3.10;2.30;;;;;;;28.81;36.22;99316.44;5087774;28;20312;-67
2022/08/03 08:50:54;;;;;;;3.60;2.10;;;;;;;28.76;37.09;99300.69;5087262;28;20049;-67
2022/08/03 08:53:23;;;;;;;4.75;2.72;;;;;;;29.00;36.64;99306.66;5088217;28;20114;-68
2022/08/03 08:55:51;;;;;;;4.45;2.15;;;;;;;29.10;35.74;99318.06;5071039;28;20119;-68
2022/08/03 08:58:21;;;;;;;3.15;1.90;;;;;;;29.08;35.10;99314.69;5087646;28;20386;-68
2022/08/03 09:00:50;;;;;;;3.30;2.30;;;;;;;29.17;34.87;99315.34;5087669;28;20056;-68
2022/08/03 09:03:17;;;;;;;2.80;2.30;;;;;;;29.18;35.95;99287.00;5087491;28;20263;-67
2022/08/03 09:05:47;;;;;;;5.50;2.40;;;;;;;29.26;34.87;99314.97;5087814;28;20113;-68
2022/08/03 09:08:15;;;;;;;2.95;2.00;;;;;;;29.20;34.98;99318.50;5087759;28;20056;-67
2022/08/03 09:10:42;;;;;;;4.43;2.10;;;;;;;29.35;34.49;99304.69;5087288;28;20055;-68
2022/08/03 09:13:10;;;;;;;3.35;2.00;;;;;;;29.50;34.79;99310.81;5069936;28;20044;-68
2022/08/03 09:15:38;;;;;;;5.15;2.17;;;;;;;29.60;34.72;99308.53;5087403;28;20052;-68
2022/08/03 09:18:05;;;;;;;3.22;2.22;;;;;;;29.55;34.59;99307.44;5087539;28;20103;-67
2022/08/03 09:20:35;;;;;;;3.90;2.15;;;;;;;29.73;34.40;99296.78;5087388;28;20052;-68
2022/08/03 09:23:08;;;;;;;2.97;2.38;;;;;;;29.78;33.65;99293.44;5087939;28;20079;-67
2022/08/03 09:25:37;;;;;;;4.15;2.63;;;;;;;29.74;34.04;99289.44;5087346;28;20130;-68
2022/08/03 09:28:10;;;;;;;3.30;2.10;;;;;;;29.79;33.40;99295.94;5087378;28;20082;-67
2022/08/03 09:30:39;;;;;;;4.50;2.25;;;;;;;29.73;33.41;99301.41;5087260;28;20045;-67
2022/08/03 09:33:08;;;;;;;6.40;2.30;;;;;;;29.78;34.59;99287.97;5087389;28;20048;-67
2022/08/03 09:35:41;;;;;;;4.55;2.45;;;;;;;29.87;32.25;99284.81;5087090;28;20047;-67
2022/08/03 09:38:10;;;;;;;;;;;;;;;29.84;32.94;99278.94;5070218;28;20061;-67
2022/08/03 09:40:37;;;;;;;4.05;2.55;;;;;;;29.97;33.36;99285.22;5087559;28;19924;-67
2022/08/03 09:43:06;;;;;;;4.45;2.50;;;;;;;30.11;32.14;99280.59;5086580;28;20117;-67
2022/08/03 09:45:34;;;;;;;4.28;2.53;;;;;;;30.18;32.35;99286.91;5085847;28;20102;-67
2022/08/03 09:48:29;;;;;;;3.40;2.20;;;;;;;29.94;30.12;99282.06;5086759;28;20056;-67
2022/08/03 09:50:58;;;;;;;3.90;2.50;;;;;;;29.95;32.83;99278.28;5029522;28;20056;-68
2022/08/03 09:53:27;;;;;;;2.65;1.95;;;;;;;29.67;31.03;99222.00;5087759;28;20040;-67
2022/08/03 09:55:56;;;;;;;3.33;2.40;;;;;;;30.12;32.31;99270.50;5087412;28;20204;-66
2022/08/03 09:58:25;;;;;;;2.95;2.10;;;;;;;30.08;31.67;99281.00;5086632;28;20056;-67
2022/08/03 10:00:58;;;;;;;3.78;2.13;;;;;;;30.23;31.84;99278.94;5086445;28;20114;-67
2022/08/03 10:03:27;;;;;;;3.08;1.83;;;;;;;30.29;30.63;99278.09;5086534;28;20114;-68
2022/08/03 10:05:55;;;;;;;3.17;2.00;;;;;;;30.29;29.87;99272.63;5085992;28;20056;-67
2022/08/03 10:08:23;;;;;;;3.75;1.92;;;;;;;30.25;31.08;99259.59;5086450;28;20090;-67
2022/08/03 10:10:53;;;;;;;4.03;2.08;;;;;;;30.31;30.71;99262.31;5086286;28;20370;-67
2022/08/03 10:13:22;;;;;;;3.50;2.13;;;;;;;30.33;31.20;99262.94;5086417;28;20052;-68
2022/08/03 10:15:50;;;;;;;3.10;2.15;;;;;;;30.38;30.64;99256.00;5085975;28;20064;-67
2022/08/03 10:18:17;;;;;;;3.22;2.22;;;;;;;30.30;29.86;99252.44;5086112;28;20106;-68
2022/08/03 10:20:49;;;;;;;3.10;1.95;;;;;;;30.46;29.08;99255.75;5085682;28;20106;-68
2022/08/03 10:23:18;;;;;;;5.47;2.20;;;;;;;30.35;30.28;99216.25;5086102;28;20117;-68
2022/08/03 10:25:49;;;;;;;4.55;2.17;;;;;;;30.67;30.68;99253.56;5085933;28;20056;-68
2022/08/03 10:28:20;;;;;;;3.03;1.90;;;;;;;30.37;29.73;99200.47;5086093;28;20259;-68
2022/08/03 10:30:50;;;;;;;3.33;2.03;;;;;;;30.66;30.33;99243.69;5086372;28;20075;-68
2022/08/03 10:33:19;;;;;;;2.60;1.90;;;;;;;30.60;29.74;99238.25;5085644;28;20105;-68
2022/08/03 10:35:50;;;;;;;3.55;2.00;;;;;;;30.75;29.44;99258.00;5085855;28;20263;-68
2022/08/03 10:38:21;;;;;;;2.90;2.00;;;;;;;30.43;29.29;99204.25;5068858;28;20048;-68
2022/08/03 10:40:53;;;;;;;2.80;2.05;;;;;;;30.72;28.79;99246.66;5085785;28;20048;-69
2022/08/03 10:43:32;;;;;;;3.53;1.90;;;;;;;30.47;27.74;99222.72;5068208;28;20086;-69
2022/08/03 10:46:02;;;;;;;2.60;1.63;;;;;;;30.57;27.11;99220.38;5085700;28;20296;-68
2022/08/03 10:48:31;;;;;;;3.05;2.03;;;;;;;30.68;27.74;99246.22;5085440;28;20094;-67
2022/08/03 10:50:59;;;;;;;2.92;2.15;;;;;;;30.79;29.41;99248.28;5085053;28;20052;-68
2022/08/03 10:53:36;;;;;;;3.20;2.10;;;;;;;30.72;27.24;99241.19;5085450;28;20061;-67
2022/08/03 10:58:52;;;;;;;2.83;1.83;;;;;;;30.77;27.22;99225.78;5085472;28;20089;-68
2022/08/03 11:01:41;;;;;;;4.15;2.03;;;;;;;30.89;28.81;99228.66;5084691;28;20052;-68
2022/08/03 11:04:16;;;;;;;3.45;2.20;;;;;;;30.91;27.28;99230.13;5085005;28;20056;-68
2022/08/03 11:06:44;;;;;;;4.85;2.20;;;;;;;30.94;28.60;99218.75;5085463;28;20040;-68
2022/08/03 11:09:17;;;;;;;3.47;2.03;;;;;;;30.98;27.79;99217.25;5067548;28;20049;-68
2022/08/03 11:11:46;;;;;;;4.60;2.42;;;;;;;30.92;28.46;99222.75;5085336;28;20254;-68
2022/08/03 11:14:17;;;;;;;3.50;2.38;;;;;;;30.90;28.40;99198.34;5083641;28;20110;-69
2022/08/03 11:16:51;;;;;;;3.35;2.10;;;;;;;30.86;28.70;99185.34;5085164;28;20056;-68
2022/08/03 11:19:24;;;;;;;3.88;2.35;;;;;;;30.89;28.35;99193.94;5085062;28;20060;-69
2022/08/03 11:21:57;;;;;;;2.97;1.80;;;;;;;30.92;27.37;99187.19;5085651;28;20086;-68
2022/08/03 11:25:01;;;;;;;3.08;1.88;;;;;;;31.14;26.88;99210.41;5084666;28;20060;-68
2022/08/03 11:27:29;;;;;;;;;;;;;;;31.10;27.19;99206.44;5085506;28;20102;-68
2022/08/03 11:30:01;;;;;;;3.17;2.10;;;;;;;31.23;27.17;99205.50;5085306;28;19981;-68
2022/08/03 11:32:55;;;;;;;4.07;2.20;;;;;;;31.25;26.56;99203.41;5067596;28;20090;-68
2022/08/03 11:35:24;;;;;;;5.45;2.33;;;;;;;31.12;27.98;99192.53;5067559;28;20116;-69
2022/08/03 11:38:06;;;;;;;3.38;2.28;;;;;;;31.17;26.22;99201.75;5085030;28;20378;-69
2022/08/03 11:40:37;;;;;;;3.50;2.22;;;;;;;31.03;26.96;99178.28;5084868;28;20056;-68
2022/08/03 11:43:05;;;;;;;3.08;2.40;;;;;;;31.18;27.86;99194.38;5085156;28;20048;-68
2022/08/03 11:45:35;;;;;;;5.35;2.35;;;;;;;31.27;27.62;99195.81;5084668;28;20057;-69
2022/08/03 11:48:14;;;;;;;3.47;2.20;;;;;;;31.31;26.88;99196.22;5085107;28;20109;-69
2022/08/03 11:50:44;;;;;;;3.80;2.63;;;;;;;31.17;28.20;99177.13;5084673;28;20071;-68
2022/08/03 11:53:18;;;;;;;3.45;2.00;;;;;;;31.21;26.79;99196.69;5084984;28;20095;-68